Terminal Aerodrome Forecast
Issued by NWS North Platte, NE

Home | Current Version | Previous Version | Text Only | Print | Product List | Glossary Off
Versions: 1 2 3 4 5 6 7 8 9 10 11 12 13 14

000
FTUS43 KLBF 301700
TAFVTN
TAF
KVTN 301720Z 3018/3118 07008KT P6SM SKC
     FM310300 14007KT P6SM SCT250
     FM311400 17015G22KT P6SM SCT070 BKN100=

USA.gov is the U.S. government's official web portal to all federal, state and local government web resources and services.